sensor_id;sensor_type;location;lat;lon;timestamp;pressure;altitude;pressure_sealevel;temperature;humidity
32452;BME280;45528;52.102;5.242;2023-04-01T00:01:25;98643.0;;;16.54;66.78
32452;BME280;45528;52.102;5.242;2023-04-01T00:03:02;98643.0;;;16.09;68.12
32452;BME280;45528;52.102;5.242;2023-04-01T00:06:15;98649.0;;;16.62;66.66
32452;BME280;45528;52.102;5.242;2023-04-01T00:07:53;98650.0;;;16.61;66.49
32452;BME280;45528;52.102;5.242;2023-04-01T00:09:29;98651.0;;;16.37;66.75
32452;BME280;45528;52.102;5.242;2023-04-01T00:12:41;98655.0;;;16.29;67.41
32452;BME280;45528;52.102;5.242;2023-04-01T00:14:19;98650.0;;;16.25;67.61
32452;BME280;45528;52.102;5.242;2023-04-01T00:15:55;98651.0;;;16.04;67.8
32452;BME280;45528;52.102;5.242;2023-04-01T00:19:08;98653.0;;;16.23;67.47
32452;BME280;45528;52.102;5.242;2023-04-01T00:20:45;98656.0;;;16.23;67.36
32452;BME280;45528;52.102;5.242;2023-04-01T00:22:22;98655.0;;;15.97;68.0
32452;BME280;45528;52.102;5.242;2023-04-01T00:23:59;98655.0;;;15.87;68.44
32452;BME280;45528;52.102;5.242;2023-04-01T00:27:12;98655.0;;;16.21;67.31
32452;BME280;45528;52.102;5.242;2023-04-01T00:28:48;98655.0;;;16.07;67.84
32452;BME280;45528;52.102;5.242;2023-04-01T00:30:25;98658.0;;;16.25;66.97
32452;BME280;45528;52.102;5.242;2023-04-01T00:33:37;98652.0;;;16.09;66.89
32452;BME280;45528;52.102;5.242;2023-04-01T00:35:14;98661.0;;;16.2;66.84
32452;BME280;45528;52.102;5.242;2023-04-01T00:36:51;98650.0;;;15.7;68.47
32452;BME280;45528;52.102;5.242;2023-04-01T00:40:07;98652.0;;;15.77;68.34
32452;BME280;45528;52.102;5.242;2023-04-01T00:42:02;98660.0;;;16.14;67.34
32452;BME280;45528;52.102;5.242;2023-04-01T00:43:39;98661.0;;;16.2;66.97
32452;BME280;45528;52.102;5.242;2023-04-01T00:45:28;98660.0;;;15.98;67.66
32452;BME280;45528;52.102;5.242;2023-04-01T00:47:05;98661.0;;;15.7;68.44
32452;BME280;45528;52.102;5.242;2023-04-01T00:50:22;98656.0;;;15.58;68.41
32452;BME280;45528;52.102;5.242;2023-04-01T00:52:02;98659.0;;;15.79;67.8
32452;BME280;45528;52.102;5.242;2023-04-01T00:53:41;98662.0;;;15.87;67.69
32452;BME280;45528;52.102;5.242;2023-04-01T00:55:22;98668.0;;;16.16;66.91
32452;BME280;45528;52.102;5.242;2023-04-01T00:58:42;98667.0;;;15.93;67.75
32452;BME280;45528;52.102;5.242;2023-04-01T01:00:20;98670.0;;;16.02;67.02
32452;BME280;45528;52.102;5.242;2023-04-01T01:01:56;98668.0;;;15.82;67.97
32452;BME280;45528;52.102;5.242;2023-04-01T01:05:11;98669.0;;;16.2;66.97
32452;BME280;45528;52.102;5.242;2023-04-01T01:06:51;98675.0;;;16.29;66.33
32452;BME280;45528;52.102;5.242;2023-04-01T01:08:50;98672.0;;;15.82;67.35
32452;BME280;45528;52.102;5.242;2023-04-01T01:10:39;98675.0;;;16.14;67.08
32452;BME280;45528;52.102;5.242;2023-04-01T01:12:18;98674.0;;;15.87;67.97
32452;BME280;45528;52.102;5.242;2023-04-01T01:15:43;98680.0;;;16.02;67.63
32452;BME280;45528;52.102;5.242;2023-04-01T01:17:30;98676.0;;;15.66;68.33
32452;BME280;45528;52.102;5.242;2023-04-01T01:19:32;98678.0;;;15.74;68.22
32452;BME280;45528;52.102;5.242;2023-04-01T01:22:02;98675.0;;;15.46;68.61
32452;BME280;45528;52.102;5.242;2023-04-01T01:23:57;98674.0;;;15.29;69.42
32452;BME280;45528;52.102;5.242;2023-04-01T01:26:28;98681.0;;;15.56;68.38
32452;BME280;45528;52.102;5.242;2023-04-01T01:28:43;98678.0;;;15.23;68.92
32452;BME280;45528;52.102;5.242;2023-04-01T01:30:38;98676.0;;;15.69;68.27
32452;BME280;45528;52.102;5.242;2023-04-01T01:32:30;98676.0;;;15.2;69.47
32452;BME280;45528;52.102;5.242;2023-04-01T01:35:18;98677.0;;;15.31;68.92
32452;BME280;45528;52.102;5.242;2023-04-01T01:38:42;98680.0;;;15.43;68.99
32452;BME280;45528;52.102;5.242;2023-04-01T01:40:19;98678.0;;;15.39;69.05
32452;BME280;45528;52.102;5.242;2023-04-01T01:41:57;98683.0;;;15.53;68.66
32452;BME280;45528;52.102;5.242;2023-04-01T01:43:39;98682.0;;;15.52;68.62
32452;BME280;45528;52.102;5.242;2023-04-01T01:46:57;98683.0;;;15.62;68.03
32452;BME280;45528;52.102;5.242;2023-04-01T01:48:36;98683.0;;;15.37;68.77
32452;BME280;45528;52.102;5.242;2023-04-01T01:50:13;98684.0;;;15.56;68.48
32452;BME280;45528;52.102;5.242;2023-04-01T01:51:52;98686.0;;;15.49;68.55
32452;BME280;45528;52.102;5.242;2023-04-01T01:55:24;98683.0;;;15.45;68.67
32452;BME280;45528;52.102;5.242;2023-04-01T01:57:05;98685.0;;;15.52;68.48
32452;BME280;45528;52.102;5.242;2023-04-01T01:58:44;98689.0;;;15.53;68.55
32452;BME280;45528;52.102;5.242;2023-04-01T02:00:22;98684.0;;;15.6;68.33
32452;BME280;45528;52.102;5.242;2023-04-01T02:03:37;98687.0;;;15.57;68.45
32452;BME280;45528;52.102;5.242;2023-04-01T02:05:17;98691.0;;;15.22;68.8
32452;BME280;45528;52.102;5.242;2023-04-01T02:06:58;98692.0;;;15.34;68.73
32452;BME280;45528;52.102;5.242;2023-04-01T02:08:40;98696.0;;;15.59;68.0
32452;BME280;45528;52.102;5.242;2023-04-01T02:12:01;98696.0;;;15.58;68.13
32452;BME280;45528;52.102;5.242;2023-04-01T02:13:42;98695.0;;;15.39;68.89
32452;BME280;45528;52.102;5.242;2023-04-01T02:15:24;98698.0;;;15.56;68.16
32452;BME280;45528;52.102;5.242;2023-04-01T02:17:06;98701.0;;;15.44;68.23
32452;BME280;45528;52.102;5.242;2023-04-01T02:20:24;98700.0;;;15.53;68.45
32452;BME280;45528;52.102;5.242;2023-04-01T02:22:07;98706.0;;;15.57;68.03
32452;BME280;45528;52.102;5.242;2023-04-01T02:23:46;98705.0;;;15.6;67.77
32452;BME280;45528;52.102;5.242;2023-04-01T02:25:25;98708.0;;;15.52;68.36
32452;BME280;45528;52.102;5.242;2023-04-01T02:28:40;98713.0;;;15.23;68.83
32452;BME280;45528;52.102;5.242;2023-04-01T02:30:19;98709.0;;;15.47;68.44
32452;BME280;45528;52.102;5.242;2023-04-01T02:31:56;98710.0;;;15.43;68.03
32452;BME280;45528;52.102;5.242;2023-04-01T02:35:12;98707.0;;;15.28;68.66
32452;BME280;45528;52.102;5.242;2023-04-01T02:36:50;98709.0;;;15.16;69.63
32452;BME280;45528;52.102;5.242;2023-04-01T02:38:26;98710.0;;;15.05;69.55
32452;BME280;45528;52.102;5.242;2023-04-01T02:40:05;98714.0;;;15.1;69.5
32452;BME280;45528;52.102;5.242;2023-04-01T02:43:21;98709.0;;;15.19;69.36
32452;BME280;45528;52.102;5.242;2023-04-01T02:44:57;98713.0;;;15.33;68.63
32452;BME280;45528;52.102;5.242;2023-04-01T02:46:33;98714.0;;;15.52;68.41
32452;BME280;45528;52.102;5.242;2023-04-01T02:49:45;98715.0;;;15.62;67.64
32452;BME280;45528;52.102;5.242;2023-04-01T02:51:22;98723.0;;;15.04;69.3
32452;BME280;45528;52.102;5.242;2023-04-01T02:52:58;98719.0;;;15.1;69.3
32452;BME280;45528;52.102;5.242;2023-04-01T02:54:34;98723.0;;;15.22;69.2
32452;BME280;45528;52.102;5.242;2023-04-01T02:57:48;98722.0;;;15.17;69.2
32452;BME280;45528;52.102;5.242;2023-04-01T02:59:24;98723.0;;;15.35;69.0
32452;BME280;45528;52.102;5.242;2023-04-01T03:01:00;98723.0;;;15.51;68.38
32452;BME280;45528;52.102;5.242;2023-04-01T03:04:13;98727.0;;;15.31;68.95
32452;BME280;45528;52.102;5.242;2023-04-01T03:05:49;98731.0;;;15.46;68.37
32452;BME280;45528;52.102;5.242;2023-04-01T03:07:25;98735.0;;;15.24;68.52
32452;BME280;45528;52.102;5.242;2023-04-01T03:10:38;98736.0;;;15.41;68.72
32452;BME280;45528;52.102;5.242;2023-04-01T03:12:14;98738.0;;;15.44;68.44
32452;BME280;45528;52.102;5.242;2023-04-01T03:13:50;98741.0;;;15.24;68.81
32452;BME280;45528;52.102;5.242;2023-04-01T03:17:02;98743.0;;;15.27;69.44
32452;BME280;45528;52.102;5.242;2023-04-01T03:18:38;98744.0;;;15.18;69.62
32452;BME280;45528;52.102;5.242;2023-04-01T03:20:15;98749.0;;;15.33;69.09
32452;BME280;45528;52.102;5.242;2023-04-01T03:21:52;98752.0;;;15.53;68.42
32452;BME280;45528;52.102;5.242;2023-04-01T03:25:06;98757.0;;;15.59;68.33
32452;BME280;45528;52.102;5.242;2023-04-01T03:26:42;98762.0;;;15.31;68.89
32452;BME280;45528;52.102;5.242;2023-04-01T03:28:18;98761.0;;;15.28;69.13
32452;BME280;45528;52.102;5.242;2023-04-01T03:31:30;98764.0;;;15.48;68.33
32452;BME280;45528;52.102;5.242;2023-04-01T03:33:07;98766.0;;;15.62;68.49
32452;BME280;45528;52.102;5.242;2023-04-01T03:34:43;98762.0;;;15.77;68.05
32452;BME280;45528;52.102;5.242;2023-04-01T03:37:55;98765.0;;;15.45;68.97
32452;BME280;45528;52.102;5.242;2023-04-01T03:39:31;98772.0;;;15.88;67.42
32452;BME280;45528;52.102;5.242;2023-04-01T03:41:11;98776.0;;;15.8;67.37
32452;BME280;45528;52.102;5.242;2023-04-01T03:42:47;98774.0;;;16.0;67.16
32452;BME280;45528;52.102;5.242;2023-04-01T03:46:01;98778.0;;;15.93;67.44
32452;BME280;45528;52.102;5.242;2023-04-01T03:47:37;98782.0;;;15.97;67.35
32452;BME280;45528;52.102;5.242;2023-04-01T03:49:13;98780.0;;;15.98;67.19
32452;BME280;45528;52.102;5.242;2023-04-01T03:52:25;98781.0;;;15.55;68.16
32452;BME280;45528;52.102;5.242;2023-04-01T03:54:01;98786.0;;;16.03;67.2
32452;BME280;45528;52.102;5.242;2023-04-01T03:55:38;98791.0;;;16.03;67.24
32452;BME280;45528;52.102;5.242;2023-04-01T03:58:51;98793.0;;;15.87;67.8
32452;BME280;45528;52.102;5.242;2023-04-01T04:00:27;98792.0;;;15.76;68.3
32452;BME280;45528;52.102;5.242;2023-04-01T04:02:04;98794.0;;;15.8;68.22
32452;BME280;45528;52.102;5.242;2023-04-01T04:03:40;98796.0;;;15.97;67.81
32452;BME280;45528;52.102;5.242;2023-04-01T04:06:53;98801.0;;;16.18;67.08
32452;BME280;45528;52.102;5.242;2023-04-01T04:08:29;98806.0;;;15.92;67.45
32452;BME280;45528;52.102;5.242;2023-04-01T04:10:06;98805.0;;;15.97;67.63
32452;BME280;45528;52.102;5.242;2023-04-01T04:13:19;98805.0;;;16.05;67.48
32452;BME280;45528;52.102;5.242;2023-04-01T04:14:55;98816.0;;;15.63;68.49
32452;BME280;45528;52.102;5.242;2023-04-01T04:16:35;98816.0;;;15.76;68.61
32452;BME280;45528;52.102;5.242;2023-04-01T04:19:47;98820.0;;;15.75;69.09
32452;BME280;45528;52.102;5.242;2023-04-01T04:21:23;98820.0;;;15.75;69.06
32452;BME280;45528;52.102;5.242;2023-04-01T04:23:00;98830.0;;;15.72;69.27
32452;BME280;45528;52.102;5.242;2023-04-01T04:24:37;98826.0;;;15.46;69.83
32452;BME280;45528;52.102;5.242;2023-04-01T04:27:51;98833.0;;;15.34;70.75
32452;BME280;45528;52.102;5.242;2023-04-01T04:29:27;98833.0;;;15.62;69.84
32452;BME280;45528;52.102;5.242;2023-04-01T04:31:04;98838.0;;;15.0;71.69
32452;BME280;45528;52.102;5.242;2023-04-01T04:34:16;98838.0;;;15.22;71.11
32452;BME280;45528;52.102;5.242;2023-04-01T04:35:55;98841.0;;;15.37;70.91
32452;BME280;45528;52.102;5.242;2023-04-01T04:37:31;98848.0;;;15.38;70.8
32452;BME280;45528;52.102;5.242;2023-04-01T04:40:44;98855.0;;;15.39;70.99
32452;BME280;45528;52.102;5.242;2023-04-01T04:42:21;98856.0;;;15.37;70.89
32452;BME280;45528;52.102;5.242;2023-04-01T04:43:57;98856.0;;;15.35;71.14
32452;BME280;45528;52.102;5.242;2023-04-01T04:45:33;98860.0;;;15.35;71.05
32452;BME280;45528;52.102;5.242;2023-04-01T04:48:45;98867.0;;;15.63;70.06
32452;BME280;45528;52.102;5.242;2023-04-01T04:50:22;98869.0;;;15.59;69.89
32452;BME280;45528;52.102;5.242;2023-04-01T04:51:58;98876.0;;;15.63;69.8
32452;BME280;45528;52.102;5.242;2023-04-01T04:55:12;98876.0;;;15.45;70.03
32452;BME280;45528;52.102;5.242;2023-04-01T04:56:48;98883.0;;;15.56;70.0
32452;BME280;45528;52.102;5.242;2023-04-01T04:58:27;98892.0;;;15.66;69.44
32452;BME280;45528;52.102;5.242;2023-04-01T05:01:41;98893.0;;;15.69;69.56
32452;BME280;45528;52.102;5.242;2023-04-01T05:03:17;98900.0;;;15.51;70.17
32452;BME280;45528;52.102;5.242;2023-04-01T05:04:53;98902.0;;;15.34;70.66
32452;BME280;45528;52.102;5.242;2023-04-01T05:06:30;98906.0;;;15.51;70.42
32452;BME280;45528;52.102;5.242;2023-04-01T05:09:42;98906.0;;;15.83;69.08
32452;BME280;45528;52.102;5.242;2023-04-01T05:11:18;98913.0;;;15.77;68.91
32452;BME280;45528;52.102;5.242;2023-04-01T05:12:55;98916.0;;;15.8;69.14
32452;BME280;45528;52.102;5.242;2023-04-01T05:16:08;98910.0;;;15.62;69.33
32452;BME280;45528;52.102;5.242;2023-04-01T05:17:44;98920.0;;;15.8;69.09
32452;BME280;45528;52.102;5.242;2023-04-01T05:19:20;98922.0;;;15.85;68.95
32452;BME280;45528;52.102;5.242;2023-04-01T05:22:32;98922.0;;;15.85;68.78
32452;BME280;45528;52.102;5.242;2023-04-01T05:24:08;98926.0;;;15.97;68.44
32452;BME280;45528;52.102;5.242;2023-04-01T05:25:44;98927.0;;;16.09;68.02
32452;BME280;45528;52.102;5.242;2023-04-01T05:27:20;98936.0;;;15.82;69.05
32452;BME280;45528;52.102;5.242;2023-04-01T05:30:31;98938.0;;;15.97;68.63
32452;BME280;45528;52.102;5.242;2023-04-01T05:32:07;98938.0;;;15.84;69.13
32452;BME280;45528;52.102;5.242;2023-04-01T05:33:43;98952.0;;;16.09;68.34
32452;BME280;45528;52.102;5.242;2023-04-01T05:36:55;98946.0;;;15.85;68.89
32452;BME280;45528;52.102;5.242;2023-04-01T05:38:32;98955.0;;;15.87;69.09
32452;BME280;45528;52.102;5.242;2023-04-01T05:40:09;98952.0;;;15.85;68.87
32452;BME280;45528;52.102;5.242;2023-04-01T05:43:21;98958.0;;;15.85;68.91
32452;BME280;45528;52.102;5.242;2023-04-01T05:44:57;98961.0;;;15.81;68.89
32452;BME280;45528;52.102;5.242;2023-04-01T05:46:33;98967.0;;;16.11;68.16
32452;BME280;45528;52.102;5.242;2023-04-01T05:49:45;98966.0;;;15.76;69.24
32452;BME280;45528;52.102;5.242;2023-04-01T05:51:22;98973.0;;;15.85;69.27
32452;BME280;45528;52.102;5.242;2023-04-01T05:52:59;98975.0;;;16.11;68.3
32452;BME280;45528;52.102;5.242;2023-04-01T05:54:35;98972.0;;;15.77;69.33
32452;BME280;45528;52.102;5.242;2023-04-01T05:57:47;98976.0;;;15.67;69.98
32452;BME280;45528;52.102;5.242;2023-04-01T05:59:23;98974.0;;;15.81;69.66
32452;BME280;45528;52.102;5.242;2023-04-01T06:01:01;98980.0;;;16.02;68.67
32452;BME280;45528;52.102;5.242;2023-04-01T06:04:15;98985.0;;;16.12;68.42
32452;BME280;45528;52.102;5.242;2023-04-01T06:05:52;98987.0;;;16.11;68.3
32452;BME280;45528;52.102;5.242;2023-04-01T06:07:28;98991.0;;;16.18;68.02
32452;BME280;45528;52.102;5.242;2023-04-01T06:10:57;98992.0;;;15.89;69.06
32452;BME280;45528;52.102;5.242;2023-04-01T06:12:45;98999.0;;;15.84;69.02
32452;BME280;45528;52.102;5.242;2023-04-01T06:14:43;99000.0;;;15.91;68.95
32452;BME280;45528;52.102;5.242;2023-04-01T06:16:33;99005.0;;;16.07;68.61
32452;BME280;45528;52.102;5.242;2023-04-01T06:18:32;99005.0;;;15.82;69.19
32452;BME280;45528;52.102;5.242;2023-04-01T06:21:11;99015.0;;;15.84;69.3
32452;BME280;45528;52.102;5.242;2023-04-01T06:23:10;99012.0;;;15.75;69.66
32452;BME280;45528;52.102;5.242;2023-04-01T06:25:27;99013.0;;;15.97;68.84
32452;BME280;45528;52.102;5.242;2023-04-01T06:27:13;99025.0;;;15.73;69.86
32452;BME280;45528;52.102;5.242;2023-04-01T06:29:10;99022.0;;;16.04;68.94
32452;BME280;45528;52.102;5.242;2023-04-01T06:31:11;99027.0;;;15.97;68.97
32452;BME280;45528;52.102;5.242;2023-04-01T06:38:03;99038.0;;;15.7;70.08
32452;BME280;45528;52.102;5.242;2023-04-01T06:41:26;99045.0;;;15.63;69.8
32452;BME280;45528;52.102;5.242;2023-04-01T06:44:16;99051.0;;;15.72;69.72
32452;BME280;45528;52.102;5.242;2023-04-01T06:46:02;99057.0;;;15.7;70.19
32452;BME280;45528;52.102;5.242;2023-04-01T06:47:58;99057.0;;;15.52;70.64
32452;BME280;45528;52.102;5.242;2023-04-01T06:49:47;99062.0;;;15.65;70.34
32452;BME280;45528;52.102;5.242;2023-04-01T06:51:34;99068.0;;;15.53;70.44
32452;BME280;45528;52.102;5.242;2023-04-01T06:53:27;99070.0;;;15.67;70.49
32452;BME280;45528;52.102;5.242;2023-04-01T06:57:05;99075.0;;;15.57;70.31
32452;BME280;45528;52.102;5.242;2023-04-01T06:58:58;99075.0;;;15.85;69.69
32452;BME280;45528;52.102;5.242;2023-04-01T07:00:40;99077.0;;;15.94;69.3
32452;BME280;45528;52.102;5.242;2023-04-01T07:02:25;99085.0;;;15.72;69.86
32452;BME280;45528;52.102;5.242;2023-04-01T07:04:09;99085.0;;;15.92;69.08
32452;BME280;45528;52.102;5.242;2023-04-01T07:05:49;99091.0;;;15.93;69.33
32452;BME280;45528;52.102;5.242;2023-04-01T07:09:15;99091.0;;;16.04;68.94
32452;BME280;45528;52.102;5.242;2023-04-01T07:10:55;99098.0;;;16.04;68.99
32452;BME280;45528;52.102;5.242;2023-04-01T07:12:40;99099.0;;;15.73;69.94
32452;BME280;45528;52.102;5.242;2023-04-01T07:14:22;99098.0;;;16.06;69.13
32452;BME280;45528;52.102;5.242;2023-04-01T07:17:53;99099.0;;;15.95;69.16
32452;BME280;45528;52.102;5.242;2023-04-01T07:19:36;99114.0;;;15.75;69.72
32452;BME280;45528;52.102;5.242;2023-04-01T07:21:23;99112.0;;;15.03;71.69
32452;BME280;45528;52.102;5.242;2023-04-01T07:23:03;99115.0;;;15.89;69.41
32452;BME280;45528;52.102;5.242;2023-04-01T07:24:44;99118.0;;;15.9;69.39
32452;BME280;45528;52.102;5.242;2023-04-01T07:28:02;99121.0;;;15.87;69.47
32452;BME280;45528;52.102;5.242;2023-04-01T07:29:40;99124.0;;;16.06;69.23
32452;BME280;45528;52.102;5.242;2023-04-01T07:31:25;99131.0;;;15.96;69.3
32452;BME280;45528;52.102;5.242;2023-04-01T07:33:13;99132.0;;;16.11;68.97
32452;BME280;45528;52.102;5.242;2023-04-01T07:36:53;99130.0;;;16.14;69.12
32452;BME280;45528;52.102;5.242;2023-04-01T07:38:44;99138.0;;;15.82;69.92
32452;BME280;45528;52.102;5.242;2023-04-01T07:40:29;99143.0;;;15.99;69.63
32452;BME280;45528;52.102;5.242;2023-04-01T07:42:18;99141.0;;;15.96;69.55
32452;BME280;45528;52.102;5.242;2023-04-01T07:44:08;99145.0;;;16.31;68.52
32452;BME280;45528;52.102;5.242;2023-04-01T07:46:02;99147.0;;;16.39;68.16
32452;BME280;45528;52.102;5.242;2023-04-01T07:47:49;99148.0;;;16.41;67.94
32452;BME280;45528;52.102;5.242;2023-04-01T07:51:24;99155.0;;;16.34;67.94
32452;BME280;45528;52.102;5.242;2023-04-01T07:53:10;99156.0;;;16.31;68.5
32452;BME280;45528;52.102;5.242;2023-04-01T07:54:57;99157.0;;;16.5;67.94
32452;BME280;45528;52.102;5.242;2023-04-01T07:56:42;99164.0;;;16.37;68.13
32452;BME280;45528;52.102;5.242;2023-04-01T07:58:26;99170.0;;;16.23;68.34
32452;BME280;45528;52.102;5.242;2023-04-01T08:00:14;99178.0;;;16.27;68.86
32452;BME280;45528;52.102;5.242;2023-04-01T08:04:00;99185.0;;;16.07;69.03
32452;BME280;45528;52.102;5.242;2023-04-01T08:05:53;99186.0;;;16.09;69.28
32452;BME280;45528;52.102;5.242;2023-04-01T08:07:36;99187.0;;;16.21;68.94
32452;BME280;45528;52.102;5.242;2023-04-01T08:09:23;99192.0;;;16.18;68.94
32452;BME280;45528;52.102;5.242;2023-04-01T08:11:13;99189.0;;;15.9;69.61
32452;BME280;45528;52.102;5.242;2023-04-01T08:13:05;99195.0;;;16.25;68.84
32452;BME280;45528;52.102;5.242;2023-04-01T08:14:53;99194.0;;;16.41;68.59
32452;BME280;45528;52.102;5.242;2023-04-01T08:18:22;99201.0;;;16.18;69.17
32452;BME280;45528;52.102;5.242;2023-04-01T08:20:16;99206.0;;;16.27;68.8
32452;BME280;45528;52.102;5.242;2023-04-01T08:22:00;99210.0;;;16.22;69.37
32452;BME280;45528;52.102;5.242;2023-04-01T08:23:41;99212.0;;;16.37;68.53
32452;BME280;45528;52.102;5.242;2023-04-01T08:25:24;99213.0;;;16.06;69.19
32452;BME280;45528;52.102;5.242;2023-04-01T08:28:50;99218.0;;;16.13;69.02
32452;BME280;45528;52.102;5.242;2023-04-01T08:30:35;99217.0;;;16.41;68.56
32452;BME280;45528;52.102;5.242;2023-04-01T08:32:19;99222.0;;;16.38;68.45
32452;BME280;45528;52.102;5.242;2023-04-01T08:33:59;99225.0;;;16.53;68.34
32452;BME280;45528;52.102;5.242;2023-04-01T08:35:42;99231.0;;;16.15;69.2
32452;BME280;45528;52.102;5.242;2023-04-01T08:39:11;99230.0;;;16.45;68.55
32452;BME280;45528;52.102;5.242;2023-04-01T08:42:01;99237.0;;;16.3;68.61
32452;BME280;45528;52.102;5.242;2023-04-01T08:45:01;99247.0;;;16.46;68.81
32452;BME280;45528;52.102;5.242;2023-04-01T08:48:07;99252.0;;;16.11;69.22
32452;BME280;45528;52.102;5.242;2023-04-01T08:51:20;99247.0;;;16.75;67.75
32452;BME280;45528;52.102;5.242;2023-04-01T08:54:18;99253.0;;;16.16;69.55
32452;BME280;45528;52.102;5.242;2023-04-01T08:57:37;99261.0;;;16.59;68.52
32452;BME280;45528;52.102;5.242;2023-04-01T08:59:30;99256.0;;;16.34;68.64
32452;BME280;45528;52.102;5.242;2023-04-01T09:02:58;99263.0;;;16.31;68.94
32452;BME280;45528;52.102;5.242;2023-04-01T09:04:51;99269.0;;;16.68;67.72
32452;BME280;45528;52.102;5.242;2023-04-01T09:06:40;99270.0;;;16.75;67.08
32452;BME280;45528;52.102;5.242;2023-04-01T09:08:34;99274.0;;;16.23;68.83
32452;BME280;45528;52.102;5.242;2023-04-01T09:10:32;99273.0;;;16.37;68.55
32452;BME280;45528;52.102;5.242;2023-04-01T09:13:14;99281.0;;;16.68;68.02
32452;BME280;45528;52.102;5.242;2023-04-01T09:15:36;99282.0;;;16.62;68.52
32452;BME280;45528;52.102;5.242;2023-04-01T09:18:56;99282.0;;;16.56;68.73
32452;BME280;45528;52.102;5.242;2023-04-01T09:21:49;99283.0;;;16.43;69.61
32452;BME280;45528;52.102;5.242;2023-04-01T09:23:57;99294.0;;;16.96;67.92
32452;BME280;45528;52.102;5.242;2023-04-01T09:26:21;99295.0;;;16.7;68.12
32452;BME280;45528;52.102;5.242;2023-04-01T09:28:09;99297.0;;;17.02;67.52
32452;BME280;45528;52.102;5.242;2023-04-01T09:32:48;99300.0;;;17.05;67.69
32452;BME280;45528;52.102;5.242;2023-04-01T09:36:04;99305.0;;;17.04;67.48
32452;BME280;45528;52.102;5.242;2023-04-01T09:37:52;99303.0;;;16.88;67.83
32452;BME280;45528;52.102;5.242;2023-04-01T09:39:38;99305.0;;;17.14;67.39
32452;BME280;45528;52.102;5.242;2023-04-01T09:41:27;99308.0;;;17.07;67.61
32452;BME280;45528;52.102;5.242;2023-04-01T09:43:20;99313.0;;;16.68;68.67
32452;BME280;45528;52.102;5.242;2023-04-01T09:45:09;99312.0;;;16.59;68.77
32452;BME280;45528;52.102;5.242;2023-04-01T09:47:01;99316.0;;;16.88;68.16
32452;BME280;45528;52.102;5.242;2023-04-01T09:52:23;99322.0;;;16.88;68.09
32452;BME280;45528;52.102;5.242;2023-04-01T09:54:13;99325.0;;;16.72;68.64
32452;BME280;45528;52.102;5.242;2023-04-01T09:56:19;99330.0;;;16.87;68.16
32452;BME280;45528;52.102;5.242;2023-04-01T09:59:28;99327.0;;;16.82;68.59
32452;BME280;45528;52.102;5.242;2023-04-01T10:01:39;99331.0;;;16.82;68.0
32452;BME280;45528;52.102;5.242;2023-04-01T10:05:57;99337.0;;;16.77;68.58
32452;BME280;45528;52.102;5.242;2023-04-01T10:16:56;99353.0;;;16.9;67.94
32452;BME280;45528;52.102;5.242;2023-04-01T10:20:34;99363.0;;;16.81;67.77
32452;BME280;45528;52.102;5.242;2023-04-01T10:23:39;99360.0;;;17.16;67.41
32452;BME280;45528;52.102;5.242;2023-04-01T10:27:16;99364.0;;;17.43;67.22
32452;BME280;45528;52.102;5.242;2023-04-01T10:31:03;99365.0;;;17.03;67.41
32452;BME280;45528;52.102;5.242;2023-04-01T10:33:03;99364.0;;;17.09;68.08
32452;BME280;45528;52.102;5.242;2023-04-01T10:36:46;99367.0;;;17.48;68.12
32452;BME280;45528;52.102;5.242;2023-04-01T10:38:53;99369.0;;;17.29;68.14
32452;BME280;45528;52.102;5.242;2023-04-01T10:45:42;99370.0;;;17.87;66.53
32452;BME280;45528;52.102;5.242;2023-04-01T10:50:04;99382.0;;;17.88;65.72
32452;BME280;45528;52.102;5.242;2023-04-01T10:52:07;99382.0;;;17.68;66.7
32452;BME280;45528;52.102;5.242;2023-04-01T10:56:39;99384.0;;;17.91;65.7
32452;BME280;45528;52.102;5.242;2023-04-01T11:05:05;99391.0;;;18.13;65.61
32452;BME280;45528;52.102;5.242;2023-04-01T11:13:30;99398.0;;;18.2;65.45
32452;BME280;45528;52.102;5.242;2023-04-01T11:14:31;99398.0;;;18.2;65.45
32452;BME280;45528;52.102;5.242;2023-04-01T11:17:59;99398.0;;;18.12;65.69
32452;BME280;45528;52.102;5.242;2023-04-01T11:18:41;99398.0;;;18.12;65.69
32452;BME280;45528;52.102;5.242;2023-04-01T11:20:41;99396.0;;;18.48;64.55
32452;BME280;45528;52.102;5.242;2023-04-01T11:23:23;99405.0;;;18.36;64.86
32452;BME280;45528;52.102;5.242;2023-04-01T11:25:40;99414.0;;;18.36;64.45
32452;BME280;45528;52.102;5.242;2023-04-01T11:28:07;99416.0;;;18.39;64.08
32452;BME280;45528;52.102;5.242;2023-04-01T11:30:20;99415.0;;;17.96;64.53
32452;BME280;45528;52.102;5.242;2023-04-01T11:32:12;99420.0;;;18.09;65.05
32452;BME280;45528;52.102;5.242;2023-04-01T11:33:57;99423.0;;;18.27;64.41
32452;BME280;45528;52.102;5.242;2023-04-01T11:35:52;99427.0;;;17.87;66.05
32452;BME280;45528;52.102;5.242;2023-04-01T11:38:09;99431.0;;;18.34;65.2
32452;BME280;45528;52.102;5.242;2023-04-01T11:39:59;99430.0;;;18.37;65.85
32452;BME280;45528;52.102;5.242;2023-04-01T11:43:34;99433.0;;;18.5;64.77
32452;BME280;45528;52.102;5.242;2023-04-01T11:45:23;99437.0;;;18.27;64.19
32452;BME280;45528;52.102;5.242;2023-04-01T11:47:18;99434.0;;;18.52;64.41
32452;BME280;45528;52.102;5.242;2023-04-01T11:49:43;99436.0;;;18.5;64.3
32452;BME280;45528;52.102;5.242;2023-04-01T11:51:43;99439.0;;;18.77;63.74
32452;BME280;45528;52.102;5.242;2023-04-01T11:54:06;99444.0;;;19.04;64.44
32452;BME280;45528;52.102;5.242;2023-04-01T11:56:00;99446.0;;;18.95;64.02
32452;BME280;45528;52.102;5.242;2023-04-01T11:57:56;99450.0;;;19.2;62.51
32452;BME280;45528;52.102;5.242;2023-04-01T11:59:52;99452.0;;;18.77;62.17
32452;BME280;45528;52.102;5.242;2023-04-01T12:01:46;99452.0;;;18.68;62.61
32452;BME280;45528;52.102;5.242;2023-04-01T12:03:42;99458.0;;;18.72;63.22
32452;BME280;45528;52.102;5.242;2023-04-01T12:06:02;99463.0;;;18.27;64.14
32452;BME280;45528;52.102;5.242;2023-04-01T12:07:55;99462.0;;;18.16;64.77
32452;BME280;45528;52.102;5.242;2023-04-01T12:09:46;99469.0;;;18.59;63.95
32452;BME280;45528;52.102;5.242;2023-04-01T12:11:31;99475.0;;;18.64;64.24
32452;BME280;45528;52.102;5.242;2023-04-01T12:15:13;99470.0;;;18.8;63.74
32452;BME280;45528;52.102;5.242;2023-04-01T12:17:00;99477.0;;;18.95;63.63
32452;BME280;45528;52.102;5.242;2023-04-01T12:18:42;99480.0;;;18.75;63.95
32452;BME280;45528;52.102;5.242;2023-04-01T12:20:30;99480.0;;;18.72;64.48